Time;durP1;ratioP1;P1;durP2;ratioP2;P2;SDS_P1;SDS_P2;PMS_P1;PMS_P2;Temp;Humidity;BMP_temperature;BMP_pressure;BME280_temperature;BME280_humidity;BME280_pressure;Samples;Min_cycle;Max_cycle;Signal;HPM_P1;HPM_P2
2023/05/09 00:00:48;;;;;;;;;;;19.50;36.30;;;;;;5095253;28;20255;-58
2023/05/09 00:03:15;;;;;;;;;;;19.50;36.30;;;;;;5076448;28;19924;-57
2023/05/09 00:05:43;;;;;;;;;;;19.50;36.30;;;;;;5078537;28;19942;-55
2023/05/09 00:08:10;;;;;;;;;;;19.50;36.30;;;;;;5076581;28;19920;-57
2023/05/09 00:10:37;;;;;;;;;;;19.50;36.30;;;;;;5076012;28;19973;-57
2023/05/09 00:13:04;;;;;;;;;;;19.50;36.30;;;;;;5078253;28;19923;-58
2023/05/09 00:15:31;;;;;;;;;;;19.60;36.40;;;;;;5094953;28;19926;-58
2023/05/09 00:17:58;;;;;;;;;;;19.50;36.30;;;;;;5078184;28;19924;-57
2023/05/09 00:20:24;;;;;;;;;;;19.50;36.40;;;;;;5077592;28;19974;-57
2023/05/09 00:22:54;;;;;;;;;;;19.50;36.40;;;;;;5077100;28;19926;-59
2023/05/09 00:25:20;;;;;;;;;;;19.50;36.40;;;;;;5076347;28;20003;-55
2023/05/09 00:27:47;;;;;;;;;;;19.60;36.50;;;;;;5095501;28;19942;-58
2023/05/09 00:30:14;;;;;;;;;;;19.50;36.40;;;;;;5077454;28;19920;-57
2023/05/09 00:32:41;;;;;;;;;;;19.50;36.40;;;;;;5077463;28;19951;-58
2023/05/09 00:35:08;;;;;;;;;;;19.60;36.50;;;;;;5077372;28;20023;-57
2023/05/09 00:37:35;;;;;;;;;;;19.50;36.40;;;;;;5077596;28;19920;-58
2023/05/09 00:40:05;;;;;;;;;;;19.50;36.40;;;;;;5076951;28;20362;-59
2023/05/09 00:42:31;;;;;;;;;;;19.50;36.40;;;;;;5093630;28;19927;-58
2023/05/09 00:44:58;;;;;;;;;;;19.50;36.40;;;;;;5073564;28;20450;-58
2023/05/09 00:47:25;;;;;;;;;;;19.50;36.40;;;;;;5094810;28;20312;-58
2023/05/09 00:49:52;;;;;;;;;;;19.50;36.40;;;;;;5094149;28;19930;-59
2023/05/09 00:52:22;;;;;;;;;;;19.50;36.40;;;;;;5077351;28;19931;-57
2023/05/09 00:54:48;;;;;;;;;;;19.50;36.40;;;;;;5094819;28;19992;-58
2023/05/09 00:57:17;;;;;;;;;;;19.50;36.40;;;;;;5094571;28;19946;-57
2023/05/09 00:59:44;;;;;;;;;;;19.50;36.40;;;;;;5091992;28;19920;-57
2023/05/09 01:02:11;;;;;;;;;;;19.50;36.40;;;;;;5074840;28;20308;-58
2023/05/09 01:04:38;;;;;;;;;;;19.50;36.40;;;;;;5093994;28;19920;-58
2023/05/09 01:07:06;;;;;;;;;;;19.50;36.40;;;;;;5077177;28;19920;-56
2023/05/09 01:09:35;;;;;;;;;;;19.50;36.40;;;;;;5091216;28;19920;-56
2023/05/09 01:12:10;;;;;;;;;;;19.50;36.40;;;;;;5092409;28;19970;-58
2023/05/09 01:14:40;;;;;;;;;;;19.50;36.40;;;;;;5092980;28;19927;-58
2023/05/09 01:17:09;;;;;;;;;;;19.50;36.40;;;;;;5074400;28;19927;-57
2023/05/09 01:19:57;;;;;;;;;;;19.50;36.40;;;;;;5080562;28;19970;-58
2023/05/09 01:22:24;;;;;;;;;;;19.50;36.40;;;;;;5080071;28;19927;-58
2023/05/09 01:24:58;;;;;;;;;;;19.50;36.40;;;;;;5094798;28;19959;-59
2023/05/09 01:27:28;;;;;;;;;;;19.50;36.40;;;;;;5092176;28;19920;-59
2023/05/09 01:29:57;;;;;;;;;;;19.50;36.40;;;;;;5089895;28;19972;-59
2023/05/09 01:32:24;;;;;;;;;;;19.50;36.40;;;;;;5091273;28;19969;-59
2023/05/09 01:34:51;;;;;;;;;;;19.50;36.40;;;;;;5076037;28;19969;-57
2023/05/09 01:37:18;;;;;;;;;;;19.50;36.40;;;;;;5078182;28;19927;-57
2023/05/09 01:39:48;;;;;;;;;;;19.50;36.40;;;;;;5094372;28;20370;-57
2023/05/09 01:42:14;;;;;;;;;;;19.50;36.40;;;;;;5076029;28;20368;-57
2023/05/09 01:44:42;;;;;;;;;;;19.50;36.40;;;;;;5096180;28;19939;-57
2023/05/09 01:47:10;;;;;;;;;;;19.50;37.00;;;;;;5077609;28;19921;-58
2023/05/09 01:49:37;;;;;;;;;;;19.50;36.40;;;;;;5076297;28;19920;-57
2023/05/09 01:52:04;;;;;;;;;;;19.50;36.40;;;;;;5077609;28;19924;-58
2023/05/09 01:54:31;;;;;;;;;;;19.50;36.40;;;;;;5094042;28;19920;-56
2023/05/09 01:56:58;;;;;;;;;;;19.50;36.30;;;;;;5093098;28;19967;-58
2023/05/09 01:59:25;;;;;;;;;;;19.50;36.40;;;;;;5082604;28;19924;-58
2023/05/09 02:01:53;;;;;;;;;;;19.50;36.40;;;;;;5077738;28;20358;-55
2023/05/09 02:04:22;;;;;;;;;;;19.50;36.40;;;;;;5076928;28;19920;-58
2023/05/09 02:06:50;;;;;;;;;;;19.50;36.40;;;;;;5084610;28;19981;-58
2023/05/09 02:09:17;;;;;;;;;;;19.50;36.40;;;;;;5091568;28;20269;-57
2023/05/09 02:11:43;;;;;;;;;;;19.50;36.40;;;;;;5094006;28;19920;-57
2023/05/09 02:14:10;;;;;;;;;;;19.50;36.40;;;;;;5094020;28;19924;-57
2023/05/09 02:16:38;;;;;;;;;;;19.50;36.40;;;;;;5078121;28;19924;-58
2023/05/09 02:19:04;;;;;;;;;;;19.50;36.40;;;;;;5079149;28;19920;-58
2023/05/09 02:21:33;;;;;;;;;;;19.50;36.40;;;;;;5080477;28;19920;-56
2023/05/09 02:23:59;;;;;;;;;;;19.50;36.40;;;;;;5076602;28;19973;-58
2023/05/09 02:26:26;;;;;;;;;;;19.50;36.40;;;;;;5092124;28;19998;-58
2023/05/09 02:28:53;;;;;;;;;;;19.50;36.40;;;;;;5093193;28;19927;-57
2023/05/09 02:31:20;;;;;;;;;;;19.50;36.40;;;;;;5093669;28;20259;-58
2023/05/09 02:33:47;;;;;;;;;;;19.50;36.40;;;;;;5096137;28;19920;-58
2023/05/09 02:36:15;;;;;;;;;;;19.50;36.40;;;;;;5079530;28;19986;-59
2023/05/09 02:38:43;;;;;;;;;;;19.50;36.40;;;;;;5093506;28;19920;-58
2023/05/09 02:41:12;;;;;;;;;;;19.50;36.40;;;;;;5076178;28;19995;-58
2023/05/09 02:43:45;;;;;;;;;;;19.50;36.40;;;;;;5101312;28;19920;-57
2023/05/09 02:46:12;;;;;;;;;;;19.50;36.40;;;;;;5095927;28;19920;-56
2023/05/09 02:48:38;;;;;;;;;;;19.50;36.40;;;;;;5097066;28;19942;-57
2023/05/09 02:51:05;;;;;;;;;;;19.50;36.40;;;;;;5079625;28;20021;-57
2023/05/09 02:53:32;;;;;;;;;;;19.50;36.40;;;;;;5095540;28;19920;-58
2023/05/09 02:56:04;;;;;;;;;;;19.50;36.40;;;;;;5095754;28;19924;-58
2023/05/09 02:58:31;;;;;;;;;;;19.50;36.40;;;;;;5095095;28;19924;-58
2023/05/09 03:00:58;;;;;;;;;;;19.50;36.50;;;;;;5093943;28;19920;-58
2023/05/09 03:03:24;;;;;;;;;;;19.50;36.40;;;;;;5093552;28;19973;-56
2023/05/09 03:05:51;;;;;;;;;;;19.50;36.50;;;;;;5078578;28;19920;-58
2023/05/09 03:08:18;;;;;;;;;;;19.50;36.50;;;;;;5095068;28;20313;-58
2023/05/09 03:10:46;;;;;;;;;;;19.50;36.50;;;;;;5078586;28;19920;-58
2023/05/09 03:13:14;;;;;;;;;;;19.40;36.40;;;;;;5079299;28;19920;-59
2023/05/09 03:15:41;;;;;;;;;;;19.40;36.40;;;;;;5076796;28;19927;-56
2023/05/09 03:18:08;;;;;;;;;;;19.40;36.40;;;;;;5079003;28;19920;-56
2023/05/09 03:20:35;;;;;;;;;;;19.40;36.40;;;;;;5078223;28;19969;-58
2023/05/09 03:23:02;;;;;;;;;;;19.40;36.40;;;;;;5076705;28;19920;-59
2023/05/09 03:25:29;;;;;;;;;;;19.40;36.40;;;;;;5077657;28;19934;-58
2023/05/09 03:31:00;;;;;;;;;;;19.40;36.40;;;;;;5096177;28;19915;-57
2023/05/09 03:33:27;;;;;;;;;;;19.40;36.40;;;;;;5095998;28;19920;-59
2023/05/09 03:35:53;;;;;;;;;;;19.40;36.40;;;;;;5095349;28;19990;-58
2023/05/09 03:38:23;;;;;;;;;;;19.40;36.40;;;;;;5078460;28;20309;-57
2023/05/09 03:40:49;;;;;;;;;;;19.40;36.40;;;;;;5080215;28;19933;-57
2023/05/09 03:43:16;;;;;;;;;;;19.40;36.40;;;;;;5078753;28;19920;-58
2023/05/09 03:45:43;;;;;;;;;;;19.40;36.40;;;;;;5092908;28;19973;-58
2023/05/09 03:48:11;;;;;;;;;;;19.40;36.40;;;;;;5096085;28;19920;-58
2023/05/09 03:50:38;;;;;;;;;;;19.40;36.40;;;;;;5078531;28;19924;-56
2023/05/09 03:53:05;;;;;;;;;;;19.40;36.40;;;;;;5077930;28;19973;-59
2023/05/09 03:55:32;;;;;;;;;;;19.40;36.40;;;;;;5093846;28;20352;-58
2023/05/09 03:57:59;;;;;;;;;;;19.40;36.40;;;;;;5076316;28;19974;-57
2023/05/09 04:00:26;;;;;;;;;;;19.40;36.40;;;;;;5078557;28;19920;-57
2023/05/09 04:02:53;;;;;;;;;;;19.40;36.50;;;;;;5076073;28;19948;-59
2023/05/09 04:05:21;;;;;;;;;;;19.40;36.50;;;;;;5092809;28;19920;-59
2023/05/09 04:07:47;;;;;;;;;;;19.40;36.40;;;;;;5077224;28;19920;-57
2023/05/09 04:10:14;;;;;;;;;;;19.40;36.50;;;;;;5077797;28;19924;-58
2023/05/09 04:12:41;;;;;;;;;;;19.40;36.40;;;;;;5075891;28;19924;-58
2023/05/09 04:15:09;;;;;;;;;;;19.40;36.40;;;;;;5077281;28;20285;-57
2023/05/09 04:17:35;;;;;;;;;;;19.40;36.40;;;;;;5094652;28;19920;-56
2023/05/09 04:20:02;;;;;;;;;;;19.40;36.40;;;;;;5092142;28;19920;-59
2023/05/09 04:22:30;;;;;;;;;;;19.40;36.40;;;;;;5075755;28;19920;-56
2023/05/09 04:24:57;;;;;;;;;;;19.40;36.40;;;;;;5095916;28;19920;-59
2023/05/09 04:27:24;;;;;;;;;;;19.40;36.40;;;;;;5076999;28;19924;-58
2023/05/09 04:29:52;;;;;;;;;;;19.40;36.50;;;;;;5077298;28;19942;-57
2023/05/09 04:32:21;;;;;;;;;;;19.40;36.50;;;;;;5077330;28;19920;-58
2023/05/09 04:34:48;;;;;;;;;;;19.40;36.50;;;;;;5091934;28;19920;-56
2023/05/09 04:37:14;;;;;;;;;;;19.40;36.50;;;;;;5077814;28;19924;-57
2023/05/09 04:39:42;;;;;;;;;;;19.40;36.50;;;;;;5076829;28;19924;-57
2023/05/09 04:42:09;;;;;;;;;;;19.40;36.50;;;;;;5077019;28;19920;-56
2023/05/09 04:44:36;;;;;;;;;;;19.40;36.50;;;;;;5093141;28;19920;-58
2023/05/09 04:47:03;;;;;;;;;;;19.40;36.60;;;;;;5075193;28;19924;-59
2023/05/09 04:49:30;;;;;;;;;;;19.40;36.60;;;;;;5077319;28;19924;-56
2023/05/09 04:51:57;;;;;;;;;;;19.40;36.60;;;;;;5076754;28;19927;-58
2023/05/09 04:54:24;;;;;;;;;;;19.40;36.60;;;;;;5073661;28;19920;-58
2023/05/09 04:56:53;;;;;;;;;;;19.40;36.60;;;;;;5090894;28;19926;-58
2023/05/09 04:59:19;;;;;;;;;;;19.40;36.60;;;;;;5076856;28;19920;-59
2023/05/09 05:01:46;;;;;;;;;;;19.40;36.70;;;;;;5091677;28;19970;-58
2023/05/09 05:04:13;;;;;;;;;;;19.40;36.60;;;;;;5074247;28;19923;-59
2023/05/09 05:06:40;;;;;;;;;;;19.40;36.60;;;;;;5094340;28;19927;-57
2023/05/09 05:09:09;;;;;;;;;;;19.40;36.70;;;;;;5081791;28;20259;-58
2023/05/09 05:11:36;;;;;;;;;;;19.40;36.70;;;;;;5091705;28;19920;-57
2023/05/09 05:14:04;;;;;;;;;;;19.40;36.70;;;;;;5090529;28;19967;-56
2023/05/09 05:16:31;;;;;;;;;;;19.40;36.70;;;;;;5086586;28;20003;-57
2023/05/09 05:18:57;;;;;;;;;;;19.40;36.80;;;;;;5073036;28;19920;-58
2023/05/09 05:21:24;;;;;;;;;;;19.40;36.70;;;;;;5073107;28;20427;-59
2023/05/09 05:23:51;;;;;;;;;;;19.40;36.70;;;;;;5072812;28;20266;-57
2023/05/09 05:26:17;;;;;;;;;;;19.40;36.70;;;;;;5072998;28;19920;-58
2023/05/09 05:28:44;;;;;;;;;;;19.40;36.70;;;;;;5091174;28;19924;-57
2023/05/09 05:31:12;;;;;;;;;;;19.40;36.70;;;;;;5090614;28;19921;-54
2023/05/09 05:33:39;;;;;;;;;;;19.40;36.70;;;;;;5093434;28;19969;-57
2023/05/09 05:36:06;;;;;;;;;;;19.40;36.70;;;;;;5093133;28;19927;-57
2023/05/09 05:38:33;;;;;;;;;;;19.40;36.80;;;;;;5093127;28;19970;-58
2023/05/09 05:41:00;;;;;;;;;;;19.40;36.80;;;;;;5091081;28;19973;-58
2023/05/09 05:43:26;;;;;;;;;;;19.40;36.80;;;;;;5094833;28;19977;-58
2023/05/09 05:45:54;;;;;;;;;;;19.40;36.80;;;;;;5094640;28;19975;-58
2023/05/09 05:48:22;;;;;;;;;;;19.40;37.50;;;;;;5095390;28;19920;-56
2023/05/09 05:50:49;;;;;;;;;;;19.40;36.90;;;;;;5056890;28;19921;-58
2023/05/09 05:53:16;;;;;;;;;;;19.40;36.90;;;;;;5072773;28;19921;-59
2023/05/09 05:55:44;;;;;;;;;;;19.40;36.90;;;;;;5072926;28;20351;-58
2023/05/09 05:58:11;;;;;;;;;;;19.40;37.00;;;;;;5072999;28;20312;-57
2023/05/09 06:00:38;;;;;;;;;;;19.40;37.00;;;;;;5072596;28;19974;-58
2023/05/09 06:03:05;;;;;;;;;;;19.40;37.00;;;;;;5083378;28;19920;-59
2023/05/09 06:05:33;;;;;;;;;;;19.40;37.00;;;;;;5076122;28;19928;-56
2023/05/09 06:07:59;;;;;;;;;;;19.40;37.10;;;;;;5092137;28;19920;-58
2023/05/09 06:10:26;;;;;;;;;;;19.40;37.10;;;;;;5074353;28;19920;-57
2023/05/09 06:12:53;;;;;;;;;;;19.40;37.00;;;;;;5076002;28;19995;-58
2023/05/09 06:15:20;;;;;;;;;;;19.40;37.10;;;;;;5075873;28;19927;-58
2023/05/09 06:17:47;;;;;;;;;;;19.40;37.10;;;;;;5075143;28;19920;-57
2023/05/09 06:20:13;;;;;;;;;;;19.40;37.10;;;;;;5080126;28;20386;-58
2023/05/09 06:22:41;;;;;;;;;;;19.50;37.20;;;;;;5097570;28;19927;-57
2023/05/09 06:25:09;;;;;;;;;;;19.40;37.20;;;;;;5097017;28;19920;-57
2023/05/09 06:27:35;;;;;;;;;;;19.40;37.10;;;;;;5090320;28;19981;-56
2023/05/09 06:30:02;;;;;;;;;;;19.40;37.20;;;;;;5093498;28;19920;-57
2023/05/09 06:32:29;;;;;;;;;;;19.40;37.30;;;;;;5091162;28;20030;-59
2023/05/09 06:34:56;;;;;;;;;;;19.40;37.20;;;;;;5090663;28;19920;-58
2023/05/09 06:37:22;;;;;;;;;;;19.40;37.20;;;;;;5090210;28;19927;-57
2023/05/09 06:39:50;;;;;;;;;;;19.40;37.20;;;;;;5070103;28;19924;-63
2023/05/09 06:42:17;;;;;;;;;;;19.30;37.00;;;;;;5072487;28;20008;-57
2023/05/09 06:44:44;;;;;;;;;;;19.30;37.10;;;;;;5087850;28;19928;-58
2023/05/09 06:47:11;;;;;;;;;;;19.30;37.10;;;;;;5089491;28;19927;-57
2023/05/09 06:49:37;;;;;;;;;;;19.30;37.20;;;;;;5087687;28;19928;-58
2023/05/09 06:52:04;;;;;;;;;;;19.30;37.20;;;;;;5073776;28;19928;-58
2023/05/09 06:54:31;;;;;;;;;;;19.30;37.30;;;;;;5091234;28;19920;-59
2023/05/09 06:56:59;;;;;;;;;;;19.20;37.30;;;;;;5071681;28;20022;-58
2023/05/09 06:59:26;;;;;;;;;;;19.20;37.30;;;;;;5073109;28;19923;-59
2023/05/09 07:01:54;;;;;;;;;;;19.20;37.40;;;;;;5073429;28;19920;-56
2023/05/09 07:04:21;;;;;;;;;;;19.20;37.40;;;;;;5087699;28;19927;-58
2023/05/09 07:06:48;;;;;;;;;;;19.20;37.40;;;;;;5072096;28;19920;-56
2023/05/09 07:09:16;;;;;;;;;;;19.20;37.40;;;;;;5071444;28;19981;-58
2023/05/09 07:11:43;;;;;;;;;;;19.20;37.50;;;;;;5088230;28;19946;-57
2023/05/09 07:14:14;;;;;;;;;;;19.20;37.50;;;;;;5072262;28;20116;-58
2023/05/09 07:16:41;;;;;;;;;;;19.20;37.50;;;;;;5072878;28;20046;-57
2023/05/09 07:19:08;;;;;;;;;;;19.20;37.60;;;;;;5089561;28;19924;-58
2023/05/09 07:21:34;;;;;;;;;;;19.20;37.60;;;;;;5088644;28;19932;-56
2023/05/09 07:24:01;;;;;;;;;;;19.20;37.60;;;;;;5091643;28;19920;-57
2023/05/09 07:26:28;;;;;;;;;;;19.20;37.60;;;;;;5092250;28;19924;-57
2023/05/09 07:28:55;;;;;;;;;;;19.20;37.70;;;;;;5073852;28;19928;-58
2023/05/09 07:31:23;;;;;;;;;;;19.20;37.70;;;;;;5087539;28;20362;-56
2023/05/09 07:33:50;;;;;;;;;;;19.20;37.70;;;;;;5085609;28;20453;-58
2023/05/09 07:36:17;;;;;;;;;;;19.20;37.80;;;;;;5090636;28;19919;-55
2023/05/09 07:38:43;;;;;;;;;;;19.20;37.90;;;;;;5091350;28;19924;-57
2023/05/09 07:41:10;;;;;;;;;;;19.20;37.80;;;;;;5087477;28;19920;-55
2023/05/09 07:43:37;;;;;;;;;;;19.20;37.90;;;;;;5092465;28;19920;-57
2023/05/09 07:46:04;;;;;;;;;;;19.20;37.90;;;;;;5074204;28;19931;-56
2023/05/09 07:48:35;;;;;;;;;;;19.20;38.00;;;;;;5088301;28;19973;-57
2023/05/09 07:51:02;;;;;;;;;;;19.20;38.00;;;;;;5071915;28;20354;-58
2023/05/09 07:53:31;;;;;;;;;;;19.20;38.00;;;;;;5084724;28;20417;-58
2023/05/09 07:55:58;;;;;;;;;;;19.20;38.00;;;;;;5090383;28;19920;-58
2023/05/09 07:58:24;;;;;;;;;;;19.30;38.10;;;;;;5090405;28;20883;-58
2023/05/09 08:00:51;;;;;;;;;;;19.20;38.00;;;;;;5072195;28;20024;-57
2023/05/09 08:03:19;;;;;;;;;;;19.20;38.00;;;;;;5071892;28;19932;-58
2023/05/09 08:05:47;;;;;;;;;;;19.30;38.10;;;;;;5090812;28;19959;-58
2023/05/09 08:08:14;;;;;;;;;;;19.30;38.10;;;;;;5071898;28;20411;-59
2023/05/09 08:10:41;;;;;;;;;;;19.30;38.10;;;;;;5091353;28;19946;-59
2023/05/09 08:13:08;;;;;;;;;;;19.30;38.10;;;;;;5071174;28;19932;-57
2023/05/09 08:15:35;;;;;;;;;;;19.30;38.10;;;;;;5070905;28;20319;-57
2023/05/09 08:18:01;;;;;;;;;;;19.30;38.10;;;;;;5088746;28;19924;-57
2023/05/09 08:20:30;;;;;;;;;;;19.30;38.00;;;;;;5070544;28;20001;-57
2023/05/09 08:22:58;;;;;;;;;;;19.30;38.00;;;;;;5088020;28;19954;-57
2023/05/09 08:25:24;;;;;;;;;;;19.30;38.00;;;;;;5087796;28;19980;-58
2023/05/09 08:27:51;;;;;;;;;;;19.40;38.20;;;;;;5088854;28;19927;-57
2023/05/09 08:30:18;;;;;;;;;;;19.40;38.30;;;;;;5092381;28;19924;-57
2023/05/09 08:32:45;;;;;;;;;;;19.40;38.30;;;;;;5087908;28;19959;-56
2023/05/09 08:35:12;;;;;;;;;;;19.40;38.30;;;;;;5088389;28;19920;-57
2023/05/09 08:37:38;;;;;;;;;;;19.40;38.30;;;;;;5087943;28;19927;-59
2023/05/09 08:40:08;;;;;;;;;;;19.40;38.30;;;;;;5070644;28;19924;-56
2023/05/09 08:42:36;;;;;;;;;;;19.40;38.30;;;;;;5070677;28;19931;-59
2023/05/09 08:45:06;;;;;;;;;;;19.40;38.30;;;;;;5088517;28;19920;-57
2023/05/09 08:47:34;;;;;;;;;;;19.40;38.30;;;;;;5070483;28;19928;-59
2023/05/09 08:50:01;;;;;;;;;;;19.40;38.40;;;;;;5070327;28;19920;-57
2023/05/09 08:52:29;;;;;;;;;;;19.40;38.40;;;;;;5069504;28;20496;-59
2023/05/09 08:54:56;;;;;;;;;;;19.40;38.40;;;;;;5088071;28;20423;-59
2023/05/09 08:57:24;;;;;;;;;;;19.40;38.40;;;;;;5070370;28;19932;-59
2023/05/09 08:59:51;;;;;;;;;;;19.40;38.40;;;;;;5088103;28;19924;-57
2023/05/09 09:02:18;;;;;;;;;;;19.40;38.40;;;;;;5088049;28;19970;-57
2023/05/09 09:04:45;;;;;;;;;;;19.40;38.40;;;;;;5070187;28;19920;-58
2023/05/09 09:07:12;;;;;;;;;;;19.50;38.50;;;;;;5067070;28;20015;-57
2023/05/09 09:09:39;;;;;;;;;;;19.50;38.50;;;;;;5087174;28;19926;-58
2023/05/09 09:12:06;;;;;;;;;;;19.50;38.50;;;;;;5070832;28;19924;-57
2023/05/09 09:14:34;;;;;;;;;;;19.50;38.50;;;;;;5088193;28;19947;-57
2023/05/09 09:17:01;;;;;;;;;;;19.50;38.60;;;;;;5086896;28;19924;-58
2023/05/09 09:19:29;;;;;;;;;;;19.50;38.50;;;;;;5087767;28;20315;-59
2023/05/09 09:21:55;;;;;;;;;;;19.60;38.60;;;;;;5069202;28;19935;-59
2023/05/09 09:24:23;;;;;;;;;;;19.60;38.60;;;;;;5088096;28;20270;-60
2023/05/09 09:26:50;;;;;;;;;;;19.60;38.60;;;;;;5088657;28;19927;-59
2023/05/09 09:29:17;;;;;;;;;;;19.60;38.60;;;;;;5069700;28;19920;-59
2023/05/09 09:31:45;;;;;;;;;;;19.60;38.60;;;;;;5086561;28;20081;-59
2023/05/09 09:34:12;;;;;;;;;;;19.60;38.60;;;;;;5069209;28;19951;-59
2023/05/09 09:36:39;;;;;;;;;;;19.60;38.60;;;;;;5070095;28;20074;-59
2023/05/09 09:39:06;;;;;;;;;;;19.60;38.60;;;;;;5087930;28;19932;-59
2023/05/09 09:41:32;;;;;;;;;;;19.60;38.60;;;;;;5086836;28;19981;-58
2023/05/09 09:43:59;;;;;;;;;;;19.60;38.60;;;;;;5088428;28;19920;-57
2023/05/09 09:46:26;;;;;;;;;;;19.60;38.60;;;;;;5086206;28;19920;-57
2023/05/09 09:48:56;;;;;;;;;;;19.60;38.60;;;;;;5069581;28;19921;-57
2023/05/09 09:51:23;;;;;;;;;;;19.60;38.60;;;;;;5085658;28;19943;-58
2023/05/09 09:53:50;;;;;;;;;;;19.60;38.60;;;;;;5072792;28;19970;-58
2023/05/09 09:56:16;;;;;;;;;;;19.70;38.60;;;;;;5073812;28;19928;-57
2023/05/09 09:58:43;;;;;;;;;;;19.70;38.60;;;;;;5092308;28;19928;-57
2023/05/09 10:01:12;;;;;;;;;;;19.70;38.60;;;;;;5073782;28;20297;-56
2023/05/09 10:03:39;;;;;;;;;;;19.70;38.50;;;;;;5073986;28;20362;-56
2023/05/09 10:06:09;;;;;;;;;;;19.70;38.50;;;;;;5073796;28;19927;-52
2023/05/09 10:08:35;;;;;;;;;;;19.70;38.50;;;;;;5073374;28;20280;-57
2023/05/09 10:11:02;;;;;;;;;;;19.70;38.50;;;;;;5089690;28;19919;-59
2023/05/09 10:13:29;;;;;;;;;;;19.70;38.50;;;;;;5072188;28;19932;-59
2023/05/09 10:15:56;;;;;;;;;;;19.70;38.50;;;;;;5073641;28;19920;-59
2023/05/09 10:18:25;;;;;;;;;;;19.70;38.50;;;;;;5087669;28;20332;-58
2023/05/09 10:20:52;;;;;;;;;;;19.80;38.60;;;;;;5073364;28;19926;-59
2023/05/09 10:23:20;;;;;;;;;;;19.80;38.60;;;;;;5090026;28;19928;-59
2023/05/09 10:25:51;;;;;;;;;;;19.80;38.50;;;;;;5073852;28;19920;-59
2023/05/09 10:28:18;;;;;;;;;;;19.80;38.30;;;;;;5072424;28;19924;-59
2023/05/09 10:30:48;;;;;;;;;;;19.80;38.30;;;;;;5090611;28;19985;-59
2023/05/09 10:33:15;;;;;;;;;;;19.80;38.30;;;;;;5089668;28;19924;-59
2023/05/09 10:35:44;;;;;;;;;;;19.80;38.30;;;;;;5087009;28;19927;-59
2023/05/09 10:38:11;;;;;;;;;;;19.80;38.30;;;;;;5090587;28;19920;-59
2023/05/09 10:40:40;;;;;;;;;;;19.80;38.20;;;;;;5072202;28;20263;-59
2023/05/09 10:43:07;;;;;;;;;;;19.80;38.20;;;;;;5073322;28;19920;-59
2023/05/09 10:45:33;;;;;;;;;;;19.80;38.10;;;;;;5089654;28;20007;-59
2023/05/09 10:48:01;;;;;;;;;;;19.80;38.10;;;;;;5091620;28;19920;-59
2023/05/09 10:50:28;;;;;;;;;;;19.80;38.10;;;;;;5071967;28;19920;-59
2023/05/09 10:53:12;;;;;;;;;;;19.80;38.10;;;;;;5090236;28;19920;-59
2023/05/09 10:55:49;;;;;;;;;;;19.80;38.10;;;;;;5089919;28;19920;-59
2023/05/09 10:58:26;;;;;;;;;;;19.80;38.10;;;;;;5090680;28;19925;-59
2023/05/09 11:00:53;;;;;;;;;;;19.80;38.00;;;;;;5087265;28;19924;-59
2023/05/09 11:03:20;;;;;;;;;;;19.80;37.90;;;;;;5089017;28;19935;-59
2023/05/09 11:05:47;;;;;;;;;;;19.80;37.90;;;;;;5072464;28;19947;-59
2023/05/09 11:08:20;;;;;;;;;;;19.90;37.90;;;;;;5072519;28;19959;-59
2023/05/09 11:10:49;;;;;;;;;;;19.90;37.80;;;;;;5070445;28;19924;-59
2023/05/09 11:13:18;;;;;;;;;;;19.90;37.70;;;;;;5090735;28;19920;-59
2023/05/09 11:15:51;;;;;;;;;;;19.90;37.60;;;;;;5088564;28;19924;-59
2023/05/09 11:18:18;;;;;;;;;;;19.90;37.60;;;;;;5070412;28;19938;-59
2023/05/09 11:20:45;;;;;;;;;;;19.90;37.60;;;;;;5090260;28;19955;-58
2023/05/09 11:23:14;;;;;;;;;;;19.90;37.60;;;;;;5089721;28;19924;-59
2023/05/09 11:25:41;;;;;;;;;;;19.90;37.60;;;;;;5089370;28;20261;-59
2023/05/09 11:28:11;;;;;;;;;;;19.90;37.60;;;;;;5087067;28;19919;-59
2023/05/09 11:30:39;;;;;;;;;;;19.90;37.60;;;;;;5087688;28;20374;-59
2023/05/09 11:33:06;;;;;;;;;;;19.90;37.60;;;;;;5088011;28;19924;-59
2023/05/09 11:35:33;;;;;;;;;;;19.90;37.50;;;;;;5088139;28;19931;-58
2023/05/09 11:38:00;;;;;;;;;;;19.90;37.50;;;;;;5089490;28;20273;-59
2023/05/09 11:40:27;;;;;;;;;;;19.90;37.40;;;;;;5089736;28;19970;-59
2023/05/09 11:42:54;;;;;;;;;;;19.90;37.30;;;;;;5072106;28;19924;-59
2023/05/09 11:45:23;;;;;;;;;;;19.90;37.30;;;;;;5088728;28;19931;-58
2023/05/09 11:47:50;;;;;;;;;;;19.90;37.30;;;;;;5071441;28;19920;-59
2023/05/09 11:50:18;;;;;;;;;;;19.90;37.30;;;;;;5087889;28;19963;-58
2023/05/09 11:52:45;;;;;;;;;;;19.90;37.30;;;;;;5072046;28;19920;-59
2023/05/09 11:55:12;;;;;;;;;;;20.00;37.40;;;;;;5071857;28;19924;-59
2023/05/09 11:57:39;;;;;;;;;;;20.00;37.40;;;;;;5071672;28;19973;-59
2023/05/09 12:00:08;;;;;;;;;;;20.00;37.40;;;;;;5089463;28;19936;-58
2023/05/09 12:02:36;;;;;;;;;;;20.00;37.40;;;;;;5070848;28;19924;-58
2023/05/09 12:05:07;;;;;;;;;;;20.00;37.40;;;;;;5071338;28;19920;-58
2023/05/09 12:07:34;;;;;;;;;;;20.00;37.30;;;;;;5093337;28;19920;-58
2023/05/09 12:10:03;;;;;;;;;;;20.00;37.30;;;;;;5090178;28;19932;-59
2023/05/09 12:12:30;;;;;;;;;;;20.00;37.30;;;;;;5072723;28;19955;-60
2023/05/09 12:14:56;;;;;;;;;;;20.00;37.30;;;;;;5073099;28;19924;-58
2023/05/09 12:17:23;;;;;;;;;;;20.00;37.20;;;;;;5092642;28;19924;-57
2023/05/09 12:19:51;;;;;;;;;;;20.00;37.30;;;;;;5059952;28;19924;-59
2023/05/09 12:22:20;;;;;;;;;;;20.00;37.30;;;;;;5071848;28;19923;-59
2023/05/09 12:24:47;;;;;;;;;;;20.00;37.30;;;;;;5089972;28;19967;-58
2023/05/09 12:27:15;;;;;;;;;;;20.00;37.30;;;;;;5074846;28;19920;-57
2023/05/09 12:29:44;;;;;;;;;;;20.00;37.30;;;;;;5091076;28;19927;-60
2023/05/09 12:32:11;;;;;;;;;;;20.00;37.30;;;;;;5072514;28;19920;-60
2023/05/09 12:34:38;;;;;;;;;;;20.00;37.30;;;;;;5090352;28;19924;-60
2023/05/09 12:37:16;;;;;;;;;;;20.00;37.30;;;;;;5074592;28;19920;-58
2023/05/09 12:39:43;;;;;;;;;;;20.00;37.20;;;;;;5072647;28;20049;-58
2023/05/09 12:42:12;;;;;;;;;;;20.00;37.20;;;;;;5074300;28;20373;-60
2023/05/09 12:44:40;;;;;;;;;;;20.00;37.10;;;;;;5092308;28;20363;-61
2023/05/09 12:47:07;;;;;;;;;;;20.10;37.20;;;;;;5092706;28;19935;-57
2023/05/09 12:49:36;;;;;;;;;;;20.10;37.20;;;;;;5059648;28;19931;-58
2023/05/09 12:52:03;;;;;;;;;;;20.10;37.20;;;;;;5086852;28;20008;-61
2023/05/09 12:54:31;;;;;;;;;;;20.10;37.30;;;;;;5074393;28;20064;-57
2023/05/09 12:56:58;;;;;;;;;;;20.10;37.20;;;;;;5075447;28;19977;-59
2023/05/09 12:59:25;;;;;;;;;;;20.10;37.30;;;;;;5071161;28;19943;-60
2023/05/09 13:01:54;;;;;;;;;;;20.10;37.30;;;;;;5091988;28;19925;-57
2023/05/09 13:04:21;;;;;;;;;;;20.10;37.20;;;;;;5090801;28;19935;-59
2023/05/09 13:06:48;;;;;;;;;;;20.10;37.20;;;;;;5071619;28;19926;-60
2023/05/09 13:09:14;;;;;;;;;;;20.10;37.20;;;;;;5088728;28;19973;-59
2023/05/09 13:11:43;;;;;;;;;;;20.10;37.20;;;;;;5073541;28;20365;-60
2023/05/09 13:14:09;;;;;;;;;;;20.10;37.20;;;;;;5074530;28;19973;-59
2023/05/09 13:16:36;;;;;;;;;;;20.10;37.20;;;;;;5073273;28;19924;-57
2023/05/09 13:19:06;;;;;;;;;;;20.10;37.20;;;;;;5073567;28;19920;-60
2023/05/09 13:21:33;;;;;;;;;;;20.20;37.20;;;;;;5056847;28;19939;-61
2023/05/09 13:24:00;;;;;;;;;;;20.10;37.00;;;;;;5091161;28;19927;-56
2023/05/09 13:26:27;;;;;;;;;;;20.20;37.10;;;;;;5070443;28;19927;-59
2023/05/09 13:28:55;;;;;;;;;;;20.20;37.00;;;;;;5072632;28;19960;-59
2023/05/09 13:31:22;;;;;;;;;;;20.20;37.00;;;;;;5071817;28;19932;-62
2023/05/09 13:33:49;;;;;;;;;;;20.20;37.00;;;;;;5072922;28;19924;-60
2023/05/09 13:36:16;;;;;;;;;;;20.20;36.90;;;;;;5091585;28;19927;-58
2023/05/09 13:38:44;;;;;;;;;;;20.20;36.90;;;;;;5073904;28;19960;-59
2023/05/09 13:41:12;;;;;;;;;;;20.20;36.80;;;;;;5090223;28;19935;-58
2023/05/09 13:43:39;;;;;;;;;;;20.20;36.80;;;;;;5092764;28;20414;-60
2023/05/09 13:46:07;;;;;;;;;;;20.20;36.70;;;;;;5093822;28;20279;-58
2023/05/09 13:48:33;;;;;;;;;;;20.10;36.60;;;;;;5072884;28;19931;-60
2023/05/09 13:51:01;;;;;;;;;;;20.20;36.60;;;;;;5073989;28;19924;-59
2023/05/09 13:53:28;;;;;;;;;;;20.20;36.60;;;;;;5088382;28;20286;-59
2023/05/09 13:55:55;;;;;;;;;;;20.20;36.60;;;;;;5091815;28;19946;-59
2023/05/09 13:58:23;;;;;;;;;;;20.20;36.50;;;;;;5075422;28;19920;-57
2023/05/09 14:00:50;;;;;;;;;;;20.20;36.50;;;;;;5076712;28;20149;-60
2023/05/09 14:03:18;;;;;;;;;;;20.20;36.40;;;;;;5073522;28;19920;-61
2023/05/09 14:05:46;;;;;;;;;;;20.20;36.40;;;;;;5087514;28;19920;-61
2023/05/09 14:08:13;;;;;;;;;;;20.20;36.40;;;;;;5070210;28;19927;-60
2023/05/09 14:10:40;;;;;;;;;;;20.20;36.40;;;;;;5088442;28;19927;-58
2023/05/09 14:13:07;;;;;;;;;;;20.20;36.40;;;;;;5087969;28;19932;-59
2023/05/09 14:15:35;;;;;;;;;;;20.20;36.40;;;;;;5069720;28;20315;-59
2023/05/09 14:18:01;;;;;;;;;;;20.20;36.30;;;;;;5070674;28;19999;-57
2023/05/09 14:20:29;;;;;;;;;;;20.20;36.30;;;;;;5068807;28;19926;-59